sensor_id;sensor_type;location;lat;lon;timestamp;temperature;humidity
65239;SHT30;51827;51.186;6.926;2023-03-17T00:00:20;18.61;46.96
65239;SHT30;51827;51.186;6.926;2023-03-17T00:01:22;18.62;46.99
65239;SHT30;51827;51.186;6.926;2023-03-17T00:02:22;18.61;46.99
65239;SHT30;51827;51.186;6.926;2023-03-17T00:03:24;18.59;46.97
65239;SHT30;51827;51.186;6.926;2023-03-17T00:04:25;18.62;46.96
65239;SHT30;51827;51.186;6.926;2023-03-17T00:05:30;18.59;46.94
65239;SHT30;51827;51.186;6.926;2023-03-17T00:06:32;18.61;46.98
65239;SHT30;51827;51.186;6.926;2023-03-17T00:07:32;18.59;46.96
65239;SHT30;51827;51.186;6.926;2023-03-17T00:08:33;18.61;46.94
65239;SHT30;51827;51.186;6.926;2023-03-17T00:09:34;18.61;46.93
65239;SHT30;51827;51.186;6.926;2023-03-17T00:10:34;18.59;46.98
65239;SHT30;51827;51.186;6.926;2023-03-17T00:11:34;18.59;46.94
65239;SHT30;51827;51.186;6.926;2023-03-17T00:12:34;18.59;47.01
65239;SHT30;51827;51.186;6.926;2023-03-17T00:13:35;18.59;46.94
65239;SHT30;51827;51.186;6.926;2023-03-17T00:14:35;18.59;46.96
65239;SHT30;51827;51.186;6.926;2023-03-17T00:15:35;18.59;46.94
65239;SHT30;51827;51.186;6.926;2023-03-17T00:16:41;18.59;46.96
65239;SHT30;51827;51.186;6.926;2023-03-17T00:17:42;18.58;46.98
65239;SHT30;51827;51.186;6.926;2023-03-17T00:18:43;18.59;46.94
65239;SHT30;51827;51.186;6.926;2023-03-17T00:19:43;18.58;46.92
65239;SHT30;51827;51.186;6.926;2023-03-17T00:20:44;18.59;46.96
65239;SHT30;51827;51.186;6.926;2023-03-17T00:21:45;18.59;46.92
65239;SHT30;51827;51.186;6.926;2023-03-17T00:22:46;18.61;46.92
65239;SHT30;51827;51.186;6.926;2023-03-17T00:23:49;18.62;46.92
65239;SHT30;51827;51.186;6.926;2023-03-17T00:24:49;18.59;46.94
65239;SHT30;51827;51.186;6.926;2023-03-17T00:25:50;18.59;46.94
65239;SHT30;51827;51.186;6.926;2023-03-17T00:26:50;18.59;46.96
65239;SHT30;51827;51.186;6.926;2023-03-17T00:27:51;18.59;46.94
65239;SHT30;51827;51.186;6.926;2023-03-17T00:28:52;18.59;46.97
65239;SHT30;51827;51.186;6.926;2023-03-17T00:29:52;18.59;46.93
65239;SHT30;51827;51.186;6.926;2023-03-17T00:30:55;18.61;46.94
65239;SHT30;51827;51.186;6.926;2023-03-17T00:31:56;18.59;46.95
65239;SHT30;51827;51.186;6.926;2023-03-17T00:32:57;18.59;46.94
65239;SHT30;51827;51.186;6.926;2023-03-17T00:33:57;18.58;46.93
65239;SHT30;51827;51.186;6.926;2023-03-17T00:34:57;18.59;47.01
65239;SHT30;51827;51.186;6.926;2023-03-17T00:35:58;18.59;46.96
65239;SHT30;51827;51.186;6.926;2023-03-17T00:36:58;18.58;46.95
65239;SHT30;51827;51.186;6.926;2023-03-17T00:37:58;18.56;46.97
65239;SHT30;51827;51.186;6.926;2023-03-17T00:38:58;18.58;46.98
65239;SHT30;51827;51.186;6.926;2023-03-17T00:39:59;18.58;46.96
65239;SHT30;51827;51.186;6.926;2023-03-17T00:40:59;18.59;46.92
65239;SHT30;51827;51.186;6.926;2023-03-17T00:41:59;18.56;46.93
65239;SHT30;51827;51.186;6.926;2023-03-17T00:42:59;18.56;46.93
65239;SHT30;51827;51.186;6.926;2023-03-17T00:44:00;18.59;46.92
65239;SHT30;51827;51.186;6.926;2023-03-17T00:45:00;18.61;46.90
65239;SHT30;51827;51.186;6.926;2023-03-17T00:46:00;18.59;46.87
65239;SHT30;51827;51.186;6.926;2023-03-17T00:47:01;18.59;46.90
65239;SHT30;51827;51.186;6.926;2023-03-17T00:48:01;18.59;46.88
65239;SHT30;51827;51.186;6.926;2023-03-17T00:50:18;18.59;46.89
65239;SHT30;51827;51.186;6.926;2023-03-17T00:51:19;18.61;46.90
65239;SHT30;51827;51.186;6.926;2023-03-17T00:52:19;18.59;46.87
65239;SHT30;51827;51.186;6.926;2023-03-17T00:53:20;18.58;46.87
65239;SHT30;51827;51.186;6.926;2023-03-17T00:54:20;18.59;46.87
65239;SHT30;51827;51.186;6.926;2023-03-17T00:55:22;18.59;46.92
65239;SHT30;51827;51.186;6.926;2023-03-17T00:56:23;18.58;46.89
65239;SHT30;51827;51.186;6.926;2023-03-17T00:57:23;18.59;46.86
65239;SHT30;51827;51.186;6.926;2023-03-17T00:58:25;18.59;46.92
65239;SHT30;51827;51.186;6.926;2023-03-17T00:59:26;18.59;46.87
65239;SHT30;51827;51.186;6.926;2023-03-17T01:00:28;18.58;46.85
65239;SHT30;51827;51.186;6.926;2023-03-17T01:01:28;18.56;46.92
65239;SHT30;51827;51.186;6.926;2023-03-17T01:02:29;18.56;46.87
65239;SHT30;51827;51.186;6.926;2023-03-17T01:03:29;18.56;46.92
65239;SHT30;51827;51.186;6.926;2023-03-17T01:04:29;18.59;46.91
65239;SHT30;51827;51.186;6.926;2023-03-17T01:05:30;18.59;46.91
65239;SHT30;51827;51.186;6.926;2023-03-17T01:06:30;18.56;46.89
65239;SHT30;51827;51.186;6.926;2023-03-17T01:07:30;18.58;46.94
65239;SHT30;51827;51.186;6.926;2023-03-17T01:08:31;18.58;46.88
65239;SHT30;51827;51.186;6.926;2023-03-17T01:09:31;18.58;46.97
65239;SHT30;51827;51.186;6.926;2023-03-17T01:10:32;18.59;46.91
65239;SHT30;51827;51.186;6.926;2023-03-17T01:11:32;18.59;46.90
65239;SHT30;51827;51.186;6.926;2023-03-17T01:12:32;18.55;46.90
65239;SHT30;51827;51.186;6.926;2023-03-17T01:13:33;18.55;46.90
65239;SHT30;51827;51.186;6.926;2023-03-17T01:14:33;18.56;46.91
65239;SHT30;51827;51.186;6.926;2023-03-17T01:15:33;18.56;46.87
65239;SHT30;51827;51.186;6.926;2023-03-17T01:16:33;18.56;46.90
65239;SHT30;51827;51.186;6.926;2023-03-17T01:17:33;18.56;46.91
65239;SHT30;51827;51.186;6.926;2023-03-17T01:18:34;18.55;46.88
65239;SHT30;51827;51.186;6.926;2023-03-17T01:19:34;18.56;46.89
65239;SHT30;51827;51.186;6.926;2023-03-17T01:20:34;18.56;46.88
65239;SHT30;51827;51.186;6.926;2023-03-17T01:21:35;18.56;46.88
65239;SHT30;51827;51.186;6.926;2023-03-17T01:22:35;18.55;46.91
65239;SHT30;51827;51.186;6.926;2023-03-17T01:23:35;18.56;46.89
65239;SHT30;51827;51.186;6.926;2023-03-17T01:24:36;18.54;46.88
65239;SHT30;51827;51.186;6.926;2023-03-17T01:25:37;18.54;46.89
65239;SHT30;51827;51.186;6.926;2023-03-17T01:26:38;18.55;46.92
65239;SHT30;51827;51.186;6.926;2023-03-17T01:27:39;18.59;46.83
65239;SHT30;51827;51.186;6.926;2023-03-17T01:28:40;18.56;46.87
65239;SHT30;51827;51.186;6.926;2023-03-17T01:29:40;18.55;46.82
65239;SHT30;51827;51.186;6.926;2023-03-17T01:30:41;18.56;46.88
65239;SHT30;51827;51.186;6.926;2023-03-17T01:31:41;18.56;46.81
65239;SHT30;51827;51.186;6.926;2023-03-17T01:32:41;18.58;46.85
65239;SHT30;51827;51.186;6.926;2023-03-17T01:33:41;18.55;46.85
65239;SHT30;51827;51.186;6.926;2023-03-17T01:34:42;18.56;46.86
65239;SHT30;51827;51.186;6.926;2023-03-17T01:35:42;18.54;46.87
65239;SHT30;51827;51.186;6.926;2023-03-17T01:36:43;18.56;46.83
65239;SHT30;51827;51.186;6.926;2023-03-17T01:37:43;18.55;46.86
65239;SHT30;51827;51.186;6.926;2023-03-17T01:38:43;18.55;46.83
65239;SHT30;51827;51.186;6.926;2023-03-17T01:39:43;18.59;46.82
65239;SHT30;51827;51.186;6.926;2023-03-17T01:40:47;18.56;46.83
65239;SHT30;51827;51.186;6.926;2023-03-17T01:41:47;18.56;46.80
65239;SHT30;51827;51.186;6.926;2023-03-17T01:42:53;18.56;46.82
65239;SHT30;51827;51.186;6.926;2023-03-17T01:43:54;18.56;46.81
65239;SHT30;51827;51.186;6.926;2023-03-17T01:45:02;18.56;46.85
65239;SHT30;51827;51.186;6.926;2023-03-17T01:47:22;18.54;46.84
65239;SHT30;51827;51.186;6.926;2023-03-17T01:48:25;18.55;46.82
65239;SHT30;51827;51.186;6.926;2023-03-17T01:49:30;18.56;46.78
65239;SHT30;51827;51.186;6.926;2023-03-17T01:50:31;18.55;46.83
65239;SHT30;51827;51.186;6.926;2023-03-17T01:52:50;18.55;46.77
65239;SHT30;51827;51.186;6.926;2023-03-17T01:53:51;18.55;46.79
65239;SHT30;51827;51.186;6.926;2023-03-17T01:54:53;18.56;46.84
65239;SHT30;51827;51.186;6.926;2023-03-17T01:55:55;18.54;46.79
65239;SHT30;51827;51.186;6.926;2023-03-17T01:57:02;18.54;46.81
65239;SHT30;51827;51.186;6.926;2023-03-17T01:58:02;18.51;46.78
65239;SHT30;51827;51.186;6.926;2023-03-17T01:59:06;18.55;46.80
65239;SHT30;51827;51.186;6.926;2023-03-17T02:01:09;18.54;46.84
65239;SHT30;51827;51.186;6.926;2023-03-17T02:02:12;18.54;46.82
65239;SHT30;51827;51.186;6.926;2023-03-17T02:03:14;18.52;46.79
65239;SHT30;51827;51.186;6.926;2023-03-17T02:04:15;18.55;46.78
65239;SHT30;51827;51.186;6.926;2023-03-17T02:05:19;18.54;46.78
65239;SHT30;51827;51.186;6.926;2023-03-17T02:06:19;18.54;46.79
65239;SHT30;51827;51.186;6.926;2023-03-17T02:07:22;18.52;46.80
65239;SHT30;51827;51.186;6.926;2023-03-17T02:08:22;18.54;46.80
65239;SHT30;51827;51.186;6.926;2023-03-17T02:09:23;18.54;46.79
65239;SHT30;51827;51.186;6.926;2023-03-17T02:10:25;18.54;46.79
65239;SHT30;51827;51.186;6.926;2023-03-17T02:11:27;18.52;46.78
65239;SHT30;51827;51.186;6.926;2023-03-17T02:12:28;18.54;46.77
65239;SHT30;51827;51.186;6.926;2023-03-17T02:13:28;18.54;46.77
65239;SHT30;51827;51.186;6.926;2023-03-17T02:14:29;18.52;46.77
65239;SHT30;51827;51.186;6.926;2023-03-17T02:15:44;18.52;46.78
65239;SHT30;51827;51.186;6.926;2023-03-17T02:16:44;18.52;46.77
65239;SHT30;51827;51.186;6.926;2023-03-17T02:17:44;18.52;46.76
65239;SHT30;51827;51.186;6.926;2023-03-17T02:18:45;18.54;46.78
65239;SHT30;51827;51.186;6.926;2023-03-17T02:19:45;18.54;46.76
65239;SHT30;51827;51.186;6.926;2023-03-17T02:21:53;18.52;46.76
65239;SHT30;51827;51.186;6.926;2023-03-17T02:22:55;18.54;46.72
65239;SHT30;51827;51.186;6.926;2023-03-17T02:23:56;18.52;46.75
65239;SHT30;51827;51.186;6.926;2023-03-17T02:24:58;18.52;46.78
65239;SHT30;51827;51.186;6.926;2023-03-17T02:25:58;18.54;46.72
65239;SHT30;51827;51.186;6.926;2023-03-17T02:27:03;18.52;46.68
65239;SHT30;51827;51.186;6.926;2023-03-17T02:28:08;18.54;46.73
65239;SHT30;51827;51.186;6.926;2023-03-17T02:29:09;18.54;46.72
65239;SHT30;51827;51.186;6.926;2023-03-17T02:30:11;18.51;46.73
65239;SHT30;51827;51.186;6.926;2023-03-17T02:31:12;18.51;46.75
65239;SHT30;51827;51.186;6.926;2023-03-17T02:32:14;18.51;46.72
65239;SHT30;51827;51.186;6.926;2023-03-17T02:33:15;18.51;46.79
65239;SHT30;51827;51.186;6.926;2023-03-17T02:34:15;18.51;46.76
65239;SHT30;51827;51.186;6.926;2023-03-17T02:35:16;18.52;46.75
65239;SHT30;51827;51.186;6.926;2023-03-17T02:36:16;18.51;46.78
65239;SHT30;51827;51.186;6.926;2023-03-17T02:37:18;18.51;46.78
65239;SHT30;51827;51.186;6.926;2023-03-17T02:38:18;18.52;46.75
65239;SHT30;51827;51.186;6.926;2023-03-17T02:39:18;18.54;46.72
65239;SHT30;51827;51.186;6.926;2023-03-17T02:40:19;18.54;46.72
65239;SHT30;51827;51.186;6.926;2023-03-17T02:41:19;18.52;46.73
65239;SHT30;51827;51.186;6.926;2023-03-17T02:42:20;18.52;46.72
65239;SHT30;51827;51.186;6.926;2023-03-17T02:43:20;18.52;46.71
65239;SHT30;51827;51.186;6.926;2023-03-17T02:44:20;18.54;46.73
65239;SHT30;51827;51.186;6.926;2023-03-17T02:45:21;18.52;46.75
65239;SHT30;51827;51.186;6.926;2023-03-17T02:46:21;18.51;46.74
65239;SHT30;51827;51.186;6.926;2023-03-17T02:47:21;18.54;46.72
65239;SHT30;51827;51.186;6.926;2023-03-17T02:48:22;18.54;46.72
65239;SHT30;51827;51.186;6.926;2023-03-17T02:49:23;18.52;46.72
65239;SHT30;51827;51.186;6.926;2023-03-17T02:50:25;18.52;46.71
65239;SHT30;51827;51.186;6.926;2023-03-17T02:51:27;18.52;46.72
65239;SHT30;51827;51.186;6.926;2023-03-17T02:52:27;18.54;46.72
65239;SHT30;51827;51.186;6.926;2023-03-17T02:53:27;18.54;46.68
65239;SHT30;51827;51.186;6.926;2023-03-17T02:54:27;18.49;46.73
65239;SHT30;51827;51.186;6.926;2023-03-17T02:55:28;18.51;46.72
65239;SHT30;51827;51.186;6.926;2023-03-17T02:56:28;18.51;46.73
65239;SHT30;51827;51.186;6.926;2023-03-17T02:57:28;18.49;46.74
65239;SHT30;51827;51.186;6.926;2023-03-17T02:58:28;18.52;46.73
65239;SHT30;51827;51.186;6.926;2023-03-17T02:59:29;18.51;46.70
65239;SHT30;51827;51.186;6.926;2023-03-17T03:00:29;18.52;46.71
65239;SHT30;51827;51.186;6.926;2023-03-17T03:01:29;18.52;46.71
65239;SHT30;51827;51.186;6.926;2023-03-17T03:02:30;18.51;46.72
65239;SHT30;51827;51.186;6.926;2023-03-17T03:03:30;18.52;46.70
65239;SHT30;51827;51.186;6.926;2023-03-17T03:04:30;18.52;46.70
65239;SHT30;51827;51.186;6.926;2023-03-17T03:05:31;18.54;46.70
65239;SHT30;51827;51.186;6.926;2023-03-17T03:06:31;18.51;46.69
65239;SHT30;51827;51.186;6.926;2023-03-17T03:07:32;18.51;46.68
65239;SHT30;51827;51.186;6.926;2023-03-17T03:08:32;18.51;46.71
65239;SHT30;51827;51.186;6.926;2023-03-17T03:09:32;18.52;46.72
65239;SHT30;51827;51.186;6.926;2023-03-17T03:10:33;18.51;46.72
65239;SHT30;51827;51.186;6.926;2023-03-17T03:11:33;18.54;46.71
65239;SHT30;51827;51.186;6.926;2023-03-17T03:12:33;18.54;46.74
65239;SHT30;51827;51.186;6.926;2023-03-17T03:13:34;18.52;46.72
65239;SHT30;51827;51.186;6.926;2023-03-17T03:14:34;18.49;46.73
65239;SHT30;51827;51.186;6.926;2023-03-17T03:15:34;18.51;46.68
65239;SHT30;51827;51.186;6.926;2023-03-17T03:16:35;18.52;46.67
65239;SHT30;51827;51.186;6.926;2023-03-17T03:17:35;18.51;46.70
65239;SHT30;51827;51.186;6.926;2023-03-17T03:18:35;18.52;46.66
65239;SHT30;51827;51.186;6.926;2023-03-17T03:19:36;18.52;46.71
65239;SHT30;51827;51.186;6.926;2023-03-17T03:20:36;18.52;46.67
65239;SHT30;51827;51.186;6.926;2023-03-17T03:21:36;18.51;46.70
65239;SHT30;51827;51.186;6.926;2023-03-17T03:22:37;18.51;46.68
65239;SHT30;51827;51.186;6.926;2023-03-17T03:23:37;18.49;46.68
65239;SHT30;51827;51.186;6.926;2023-03-17T03:24:37;18.49;46.73
65239;SHT30;51827;51.186;6.926;2023-03-17T03:25:37;18.49;46.68
65239;SHT30;51827;51.186;6.926;2023-03-17T03:26:38;18.51;46.69
65239;SHT30;51827;51.186;6.926;2023-03-17T03:27:38;18.49;46.69
65239;SHT30;51827;51.186;6.926;2023-03-17T03:28:38;18.51;46.67
65239;SHT30;51827;51.186;6.926;2023-03-17T03:29:38;18.52;46.66
65239;SHT30;51827;51.186;6.926;2023-03-17T03:30:39;18.51;46.66
65239;SHT30;51827;51.186;6.926;2023-03-17T03:31:39;18.52;46.65
65239;SHT30;51827;51.186;6.926;2023-03-17T03:32:39;18.51;46.64
65239;SHT30;51827;51.186;6.926;2023-03-17T03:33:40;18.49;46.65
65239;SHT30;51827;51.186;6.926;2023-03-17T03:34:41;18.51;46.63
65239;SHT30;51827;51.186;6.926;2023-03-17T03:35:42;18.54;46.66
65239;SHT30;51827;51.186;6.926;2023-03-17T03:36:42;18.49;46.63
65239;SHT30;51827;51.186;6.926;2023-03-17T03:37:42;18.49;46.64
65239;SHT30;51827;51.186;6.926;2023-03-17T03:38:43;18.48;46.61
65239;SHT30;51827;51.186;6.926;2023-03-17T03:39:43;18.51;46.65
65239;SHT30;51827;51.186;6.926;2023-03-17T03:40:43;18.51;46.61
65239;SHT30;51827;51.186;6.926;2023-03-17T03:41:44;18.51;46.66
65239;SHT30;51827;51.186;6.926;2023-03-17T03:42:44;18.48;46.60
65239;SHT30;51827;51.186;6.926;2023-03-17T03:43:44;18.49;46.64
65239;SHT30;51827;51.186;6.926;2023-03-17T03:44:44;18.48;46.61
65239;SHT30;51827;51.186;6.926;2023-03-17T03:45:45;18.49;46.62
65239;SHT30;51827;51.186;6.926;2023-03-17T03:46:45;18.51;46.64
65239;SHT30;51827;51.186;6.926;2023-03-17T03:47:45;18.49;46.62
65239;SHT30;51827;51.186;6.926;2023-03-17T03:48:45;18.47;46.64
65239;SHT30;51827;51.186;6.926;2023-03-17T03:49:46;18.49;46.60
65239;SHT30;51827;51.186;6.926;2023-03-17T03:50:46;18.48;46.63
65239;SHT30;51827;51.186;6.926;2023-03-17T03:51:46;18.51;46.62
65239;SHT30;51827;51.186;6.926;2023-03-17T03:52:47;18.49;46.61
65239;SHT30;51827;51.186;6.926;2023-03-17T03:53:47;18.51;46.67
65239;SHT30;51827;51.186;6.926;2023-03-17T03:54:47;18.51;46.60
65239;SHT30;51827;51.186;6.926;2023-03-17T03:55:48;18.48;46.64
65239;SHT30;51827;51.186;6.926;2023-03-17T03:56:48;18.51;46.63
65239;SHT30;51827;51.186;6.926;2023-03-17T03:57:48;18.49;46.65
65239;SHT30;51827;51.186;6.926;2023-03-17T03:58:49;18.49;46.64
65239;SHT30;51827;51.186;6.926;2023-03-17T03:59:49;18.51;46.66
65239;SHT30;51827;51.186;6.926;2023-03-17T04:00:49;18.47;46.63
65239;SHT30;51827;51.186;6.926;2023-03-17T04:01:49;18.48;46.66
65239;SHT30;51827;51.186;6.926;2023-03-17T04:02:50;18.49;46.64
65239;SHT30;51827;51.186;6.926;2023-03-17T04:03:50;18.48;46.62
65239;SHT30;51827;51.186;6.926;2023-03-17T04:04:50;18.48;46.63
65239;SHT30;51827;51.186;6.926;2023-03-17T04:05:50;18.48;46.68
65239;SHT30;51827;51.186;6.926;2023-03-17T04:06:51;18.48;46.64
65239;SHT30;51827;51.186;6.926;2023-03-17T04:07:51;18.51;46.61
65239;SHT30;51827;51.186;6.926;2023-03-17T04:08:51;18.48;46.63
65239;SHT30;51827;51.186;6.926;2023-03-17T04:09:52;18.45;46.68
65239;SHT30;51827;51.186;6.926;2023-03-17T04:10:52;18.48;46.65
65239;SHT30;51827;51.186;6.926;2023-03-17T04:11:52;18.48;46.68
65239;SHT30;51827;51.186;6.926;2023-03-17T04:12:52;18.48;46.63
65239;SHT30;51827;51.186;6.926;2023-03-17T04:13:53;18.51;46.64
65239;SHT30;51827;51.186;6.926;2023-03-17T04:14:53;18.47;46.64
65239;SHT30;51827;51.186;6.926;2023-03-17T04:15:53;18.47;46.65
65239;SHT30;51827;51.186;6.926;2023-03-17T04:16:53;18.48;46.58
65239;SHT30;51827;51.186;6.926;2023-03-17T04:17:54;18.47;46.62
65239;SHT30;51827;51.186;6.926;2023-03-17T04:18:54;18.51;46.61
65239;SHT30;51827;51.186;6.926;2023-03-17T04:19:54;18.47;46.57
65239;SHT30;51827;51.186;6.926;2023-03-17T04:20:54;18.49;46.62
65239;SHT30;51827;51.186;6.926;2023-03-17T04:21:55;18.48;46.60
65239;SHT30;51827;51.186;6.926;2023-03-17T04:22:55;18.48;46.57
65239;SHT30;51827;51.186;6.926;2023-03-17T04:23:55;18.49;46.56
65239;SHT30;51827;51.186;6.926;2023-03-17T04:24:56;18.51;46.61
65239;SHT30;51827;51.186;6.926;2023-03-17T04:25:56;18.48;46.58
65239;SHT30;51827;51.186;6.926;2023-03-17T04:26:56;18.51;46.60
65239;SHT30;51827;51.186;6.926;2023-03-17T04:27:56;18.52;46.60
65239;SHT30;51827;51.186;6.926;2023-03-17T04:28:57;18.49;46.62
65239;SHT30;51827;51.186;6.926;2023-03-17T04:29:57;18.51;46.62
65239;SHT30;51827;51.186;6.926;2023-03-17T04:30:57;18.49;46.66
65239;SHT30;51827;51.186;6.926;2023-03-17T04:31:57;18.48;46.56
65239;SHT30;51827;51.186;6.926;2023-03-17T04:32:58;18.49;46.60
65239;SHT30;51827;51.186;6.926;2023-03-17T04:33:58;18.48;46.62
65239;SHT30;51827;51.186;6.926;2023-03-17T04:34:58;18.52;46.60
65239;SHT30;51827;51.186;6.926;2023-03-17T04:35:58;18.48;46.60
65239;SHT30;51827;51.186;6.926;2023-03-17T04:36:59;18.49;46.58
65239;SHT30;51827;51.186;6.926;2023-03-17T04:37:59;18.47;46.66
65239;SHT30;51827;51.186;6.926;2023-03-17T04:38:59;18.47;46.65
65239;SHT30;51827;51.186;6.926;2023-03-17T04:39:59;18.48;46.69
65239;SHT30;51827;51.186;6.926;2023-03-17T04:41:00;18.48;46.68
65239;SHT30;51827;51.186;6.926;2023-03-17T04:42:00;18.48;46.69
65239;SHT30;51827;51.186;6.926;2023-03-17T04:43:00;18.51;46.71
65239;SHT30;51827;51.186;6.926;2023-03-17T04:44:00;18.51;46.63
65239;SHT30;51827;51.186;6.926;2023-03-17T04:45:02;18.48;46.69
65239;SHT30;51827;51.186;6.926;2023-03-17T04:46:02;18.47;46.69
65239;SHT30;51827;51.186;6.926;2023-03-17T04:47:03;18.47;46.75
65239;SHT30;51827;51.186;6.926;2023-03-17T04:48:03;18.49;46.69
65239;SHT30;51827;51.186;6.926;2023-03-17T04:49:04;18.49;46.68
65239;SHT30;51827;51.186;6.926;2023-03-17T04:50:05;18.49;46.75
65239;SHT30;51827;51.186;6.926;2023-03-17T04:51:05;18.49;46.73
65239;SHT30;51827;51.186;6.926;2023-03-17T04:52:05;18.49;46.68
65239;SHT30;51827;51.186;6.926;2023-03-17T04:53:06;18.49;46.73
65239;SHT30;51827;51.186;6.926;2023-03-17T04:54:06;18.48;46.73
65239;SHT30;51827;51.186;6.926;2023-03-17T04:55:07;18.45;46.72
65239;SHT30;51827;51.186;6.926;2023-03-17T04:56:07;18.49;46.77
65239;SHT30;51827;51.186;6.926;2023-03-17T04:57:08;18.48;46.72
65239;SHT30;51827;51.186;6.926;2023-03-17T04:58:09;18.49;46.77
65239;SHT30;51827;51.186;6.926;2023-03-17T04:59:09;18.49;46.77
65239;SHT30;51827;51.186;6.926;2023-03-17T05:00:10;18.48;46.80
65239;SHT30;51827;51.186;6.926;2023-03-17T05:01:10;18.51;46.80
65239;SHT30;51827;51.186;6.926;2023-03-17T05:02:10;18.49;46.82
65239;SHT30;51827;51.186;6.926;2023-03-17T05:03:10;18.49;46.87
65239;SHT30;51827;51.186;6.926;2023-03-17T05:04:11;18.49;46.86
65239;SHT30;51827;51.186;6.926;2023-03-17T05:05:11;18.48;46.87
65239;SHT30;51827;51.186;6.926;2023-03-17T05:06:11;18.48;46.82
65239;SHT30;51827;51.186;6.926;2023-03-17T05:07:12;18.48;47.16
65239;SHT30;51827;51.186;6.926;2023-03-17T05:08:13;18.49;47.33
65239;SHT30;51827;51.186;6.926;2023-03-17T05:09:13;18.51;47.18
65239;SHT30;51827;51.186;6.926;2023-03-17T05:10:13;18.51;47.10
65239;SHT30;51827;51.186;6.926;2023-03-17T05:11:14;18.52;47.04
65239;SHT30;51827;51.186;6.926;2023-03-17T05:12:14;18.52;47.08
65239;SHT30;51827;51.186;6.926;2023-03-17T05:13:15;18.54;47.07
65239;SHT30;51827;51.186;6.926;2023-03-17T05:14:15;18.51;47.09
65239;SHT30;51827;51.186;6.926;2023-03-17T05:15:15;18.51;47.21
65239;SHT30;51827;51.186;6.926;2023-03-17T05:16:15;18.49;47.43
65239;SHT30;51827;51.186;6.926;2023-03-17T05:17:16;18.52;47.41
65239;SHT30;51827;51.186;6.926;2023-03-17T05:18:17;18.51;47.29
65239;SHT30;51827;51.186;6.926;2023-03-17T05:19:17;18.52;47.16
65239;SHT30;51827;51.186;6.926;2023-03-17T05:20:18;18.54;47.22
65239;SHT30;51827;51.186;6.926;2023-03-17T05:21:18;18.51;47.16
65239;SHT30;51827;51.186;6.926;2023-03-17T05:22:18;18.54;47.16
65239;SHT30;51827;51.186;6.926;2023-03-17T05:23:19;18.51;47.12
65239;SHT30;51827;51.186;6.926;2023-03-17T05:24:19;18.51;47.16
65239;SHT30;51827;51.186;6.926;2023-03-17T05:25:19;18.51;47.15
65239;SHT30;51827;51.186;6.926;2023-03-17T05:26:19;18.51;47.16
65239;SHT30;51827;51.186;6.926;2023-03-17T05:27:20;18.48;47.11
65239;SHT30;51827;51.186;6.926;2023-03-17T05:28:20;18.49;47.38
65239;SHT30;51827;51.186;6.926;2023-03-17T05:29:20;18.49;47.56
65239;SHT30;51827;51.186;6.926;2023-03-17T05:30:21;18.49;47.61
65239;SHT30;51827;51.186;6.926;2023-03-17T05:31:21;18.52;47.43
65239;SHT30;51827;51.186;6.926;2023-03-17T05:32:21;18.51;47.21
65239;SHT30;51827;51.186;6.926;2023-03-17T05:33:22;18.51;47.15
65239;SHT30;51827;51.186;6.926;2023-03-17T05:34:22;18.51;47.12
65239;SHT30;51827;51.186;6.926;2023-03-17T05:35:22;18.49;47.22
65239;SHT30;51827;51.186;6.926;2023-03-17T05:36:22;18.51;47.45
65239;SHT30;51827;51.186;6.926;2023-03-17T05:37:23;18.48;47.44
65239;SHT30;51827;51.186;6.926;2023-03-17T05:38:23;18.49;47.43
65239;SHT30;51827;51.186;6.926;2023-03-17T05:39:23;18.51;47.34
65239;SHT30;51827;51.186;6.926;2023-03-17T05:40:24;18.51;47.36
65239;SHT30;51827;51.186;6.926;2023-03-17T05:41:24;18.49;47.36
65239;SHT30;51827;51.186;6.926;2023-03-17T05:42:24;18.47;47.31
65239;SHT30;51827;51.186;6.926;2023-03-17T05:43:24;18.51;47.29
65239;SHT30;51827;51.186;6.926;2023-03-17T05:44:25;18.51;47.27
65239;SHT30;51827;51.186;6.926;2023-03-17T05:45:25;18.52;47.34
65239;SHT30;51827;51.186;6.926;2023-03-17T05:46:25;18.52;47.34
65239;SHT30;51827;51.186;6.926;2023-03-17T05:47:25;18.51;47.33
65239;SHT30;51827;51.186;6.926;2023-03-17T05:48:26;18.52;47.36
65239;SHT30;51827;51.186;6.926;2023-03-17T05:49:26;18.51;47.36
65239;SHT30;51827;51.186;6.926;2023-03-17T05:50:27;18.51;47.36
65239;SHT30;51827;51.186;6.926;2023-03-17T05:51:27;18.52;47.33
65239;SHT30;51827;51.186;6.926;2023-03-17T05:52:27;18.52;47.33
65239;SHT30;51827;51.186;6.926;2023-03-17T05:53:28;18.51;47.31
65239;SHT30;51827;51.186;6.926;2023-03-17T05:54:28;18.51;47.32
65239;SHT30;51827;51.186;6.926;2023-03-17T05:55:28;18.52;47.36
65239;SHT30;51827;51.186;6.926;2023-03-17T05:56:28;18.55;47.31
65239;SHT30;51827;51.186;6.926;2023-03-17T05:57:29;18.54;47.32
65239;SHT30;51827;51.186;6.926;2023-03-17T05:58:29;18.52;47.32
65239;SHT30;51827;51.186;6.926;2023-03-17T05:59:29;18.51;47.34
65239;SHT30;51827;51.186;6.926;2023-03-17T06:00:30;18.54;47.38
65239;SHT30;51827;51.186;6.926;2023-03-17T06:01:30;18.52;47.32
65239;SHT30;51827;51.186;6.926;2023-03-17T06:02:31;18.54;47.31
65239;SHT30;51827;51.186;6.926;2023-03-17T06:03:31;18.52;47.31
65239;SHT30;51827;51.186;6.926;2023-03-17T06:04:32;18.54;47.32
65239;SHT30;51827;51.186;6.926;2023-03-17T06:05:33;18.54;47.30
65239;SHT30;51827;51.186;6.926;2023-03-17T06:06:33;18.54;47.31
65239;SHT30;51827;51.186;6.926;2023-03-17T06:07:34;18.52;47.31
65239;SHT30;51827;51.186;6.926;2023-03-17T06:08:34;18.54;47.25
65239;SHT30;51827;51.186;6.926;2023-03-17T06:09:35;18.54;47.25
65239;SHT30;51827;51.186;6.926;2023-03-17T06:10:35;18.55;47.25
65239;SHT30;51827;51.186;6.926;2023-03-17T06:11:35;18.54;47.27
65239;SHT30;51827;51.186;6.926;2023-03-17T06:12:35;18.54;47.29
65239;SHT30;51827;51.186;6.926;2023-03-17T06:13:36;18.54;47.26
65239;SHT30;51827;51.186;6.926;2023-03-17T06:14:36;18.54;47.26
65239;SHT30;51827;51.186;6.926;2023-03-17T06:15:36;18.54;47.23
65239;SHT30;51827;51.186;6.926;2023-03-17T06:16:36;18.56;47.24
65239;SHT30;51827;51.186;6.926;2023-03-17T06:17:37;18.54;47.23
65239;SHT30;51827;51.186;6.926;2023-03-17T06:18:37;18.54;47.22
65239;SHT30;51827;51.186;6.926;2023-03-17T06:19:37;18.54;47.22
65239;SHT30;51827;51.186;6.926;2023-03-17T06:20:38;18.54;47.25
65239;SHT30;51827;51.186;6.926;2023-03-17T06:21:38;18.52;47.23
65239;SHT30;51827;51.186;6.926;2023-03-17T06:22:39;18.54;47.22
65239;SHT30;51827;51.186;6.926;2023-03-17T06:23:39;18.51;47.24
65239;SHT30;51827;51.186;6.926;2023-03-17T06:24:39;18.54;47.23
65239;SHT30;51827;51.186;6.926;2023-03-17T06:25:40;18.52;47.27
65239;SHT30;51827;51.186;6.926;2023-03-17T06:26:40;18.52;47.24
65239;SHT30;51827;51.186;6.926;2023-03-17T06:27:40;18.51;47.23
65239;SHT30;51827;51.186;6.926;2023-03-17T06:28:40;18.54;47.22